Satellite Precipitation Estimates (TXUS20 KWBC)
Issued by NWS

Current Version | Previous Version | Text Only | Print | Product List | Glossary On
Versions: 1
SPTD31 TTPP 061740 RRB
TTCP 061723Z 10012KT 9999 TS VCSH FEW012CB 30/25 Q1013 RMK CB + SHWRS
SW, WSW= is the U.S. government's official web portal to all federal, state and local government web resources and services.